Stewardson, Illinois
Current Conditions -  °F | °C
As of 8:55 AM on Thursday 23 Oct 2014 (Local Time) from K1H2 Reporting Station
Clear Clear  
Wind Chill: 46°   Ceiling: Unl
Heat Index: 46°   Visibility: 10mi
Dew Point: 41°   Wind: 3mph
Humidity: 84%   Direction: 160°SSE
Pressure: 30.25"   Gusts: NA
Location:  39.26°N, 88.63°W
Report Text: K1H2 231355Z AUTO 16003KT 10SM CLR 08/05 A3025 RMK AO2 T00760051
Loading
Personal Weather Stations






























Interactive Weather Map
Tropical Storm Tracking
New forecast layout! Learn more

10-Day Weather Forecast

Advertisements
Track Severe Weather on mobile